createdAt,value
2022-12-27T00:02:56.375Z,4.55
2022-12-27T00:03:56.355Z,4.64
2022-12-27T00:04:56.318Z,4.45
2022-12-27T00:05:56.313Z,4.45
2022-12-27T00:21:56.167Z,4.33
2022-12-27T01:23:55.527Z,4.56
2022-12-27T01:31:55.568Z,4.67
2022-12-27T01:32:55.450Z,4.66
2022-12-27T01:33:55.449Z,4.59
2022-12-27T01:34:55.417Z,4.64
2022-12-27T01:35:55.422Z,4.73
2022-12-27T01:36:55.398Z,4.53
2022-12-27T01:37:55.386Z,4.46
2022-12-27T01:38:55.381Z,4.73
2022-12-27T01:39:55.370Z,4.66
2022-12-27T01:40:55.356Z,4.64
2022-12-27T01:41:55.357Z,4.74
2022-12-27T01:42:55.385Z,4.87
2022-12-27T01:43:55.349Z,4.58
2022-12-27T01:44:55.320Z,4.66
2022-12-27T01:51:55.252Z,4.46
2022-12-27T01:52:55.236Z,4.49
2022-12-27T02:14:55.025Z,4.07
2022-12-27T02:15:55.048Z,4.01
2022-12-27T02:16:55.008Z,4.08
2022-12-27T02:26:54.896Z,4.04
2022-12-27T02:27:54.889Z,4.22
2022-12-27T02:28:54.879Z,3.96
2022-12-27T02:29:54.870Z,4.12
2022-12-27T02:30:54.910Z,4.01
2022-12-27T02:31:54.872Z,4.15
2022-12-27T02:32:54.841Z,4.18
2022-12-27T02:33:54.828Z,3.90
2022-12-27T02:34:54.818Z,4.08
2022-12-27T02:35:54.810Z,4.03
2022-12-27T02:36:54.799Z,4.00
2022-12-27T02:39:54.768Z,4.31
2022-12-27T02:47:54.710Z,4.03
2022-12-27T02:48:54.679Z,4.16
2022-12-27T02:49:54.679Z,4.28
2022-12-27T05:57:52.771Z,3.24
2022-12-27T05:59:52.788Z,3.28
2022-12-27T06:10:52.639Z,3.15
2022-12-27T06:11:52.677Z,3.33
2022-12-27T06:12:52.614Z,3.35
2022-12-27T06:13:52.688Z,3.24
2022-12-27T06:14:52.597Z,3.12
2022-12-27T06:21:52.527Z,3.28
2022-12-27T06:22:52.516Z,3.27
2022-12-27T06:23:52.506Z,3.28
2022-12-27T06:28:52.458Z,3.28
2022-12-27T06:29:52.446Z,3.29
2022-12-27T06:30:52.430Z,3.17
2022-12-27T06:31:52.782Z,3.25
2022-12-27T06:32:52.419Z,3.14
2022-12-27T06:33:52.435Z,3.07
2022-12-27T06:34:52.397Z,3.12
2022-12-27T06:35:52.384Z,3.42
2022-12-27T06:36:52.385Z,3.35
2022-12-27T06:37:52.367Z,3.42
2022-12-27T06:38:52.359Z,3.29
2022-12-27T06:39:52.345Z,3.12
2022-12-27T06:40:52.333Z,3.19
2022-12-27T06:41:52.323Z,3.18
2022-12-27T06:42:52.316Z,3.07
2022-12-27T06:43:52.306Z,3.00
2022-12-27T06:44:52.300Z,3.01
2022-12-27T06:45:52.331Z,2.91
2022-12-27T06:46:52.290Z,3.00
2022-12-27T06:47:52.287Z,3.18
2022-12-27T06:48:52.297Z,3.07
2022-12-27T06:49:52.243Z,3.09
2022-12-27T06:50:52.242Z,3.12
2022-12-27T06:51:59.090Z,3.42
2022-12-27T06:52:53.233Z,3.32
2022-12-27T06:53:52.213Z,3.19
2022-12-27T06:54:52.194Z,3.19
2022-12-27T06:55:52.185Z,3.25
2022-12-27T06:56:52.173Z,3.15
2022-12-27T06:57:52.172Z,3.32
2022-12-27T06:58:52.161Z,3.28
2022-12-27T06:59:54.104Z,3.12
2022-12-27T07:00:52.176Z,3.28
2022-12-27T07:01:52.326Z,3.32
2022-12-27T07:02:52.220Z,3.37
2022-12-27T07:03:52.149Z,3.46
2022-12-27T07:04:52.093Z,3.39
2022-12-27T07:05:52.087Z,3.27
2022-12-27T07:06:52.085Z,3.35
2022-12-27T07:07:52.063Z,3.28
2022-12-27T07:08:52.048Z,3.24
2022-12-27T07:09:52.051Z,3.32
2022-12-27T07:10:52.039Z,3.35
2022-12-27T07:11:52.023Z,3.35
2022-12-27T07:12:52.019Z,3.40
2022-12-27T07:13:52.014Z,3.46
2022-12-27T07:14:51.989Z,3.43
2022-12-27T07:15:51.986Z,3.29
2022-12-27T07:16:52.038Z,3.15
2022-12-27T07:17:51.970Z,3.18
2022-12-27T07:18:51.959Z,3.22
2022-12-27T07:19:51.973Z,3.15
2022-12-27T07:20:51.955Z,3.50
2022-12-27T07:21:51.925Z,3.32
2022-12-27T07:22:51.923Z,3.47
2022-12-27T07:23:51.907Z,3.45
2022-12-27T07:24:51.888Z,3.27
2022-12-27T07:25:51.882Z,3.55
2022-12-27T07:26:51.875Z,3.50
2022-12-27T07:27:51.858Z,3.53
2022-12-27T07:28:51.846Z,3.51
2022-12-27T07:29:51.839Z,3.75
2022-12-27T07:30:51.826Z,3.65
2022-12-27T07:31:51.858Z,3.58
2022-12-27T07:32:51.807Z,3.43
2022-12-27T07:33:51.815Z,3.61
2022-12-27T07:34:51.794Z,3.61
2022-12-27T07:35:51.794Z,3.65
2022-12-27T07:36:51.768Z,3.55
2022-12-27T07:37:51.771Z,3.54
2022-12-27T07:38:51.755Z,3.55
2022-12-27T07:39:51.737Z,3.65
2022-12-27T07:40:51.734Z,3.75
2022-12-27T07:41:51.731Z,3.61
2022-12-27T07:42:51.708Z,3.69
2022-12-27T07:43:51.722Z,3.82
2022-12-27T07:44:51.686Z,3.55
2022-12-27T07:45:51.719Z,3.87
2022-12-27T07:46:51.670Z,3.91
2022-12-27T07:47:51.665Z,3.79
2022-12-27T07:48:51.751Z,3.63
2022-12-27T07:49:51.657Z,3.91
2022-12-27T07:50:51.629Z,3.99
2022-12-27T07:51:51.659Z,4.23
2022-12-27T07:52:51.614Z,4.30
2022-12-27T07:53:51.598Z,4.61
2022-12-27T07:54:51.597Z,4.61
2022-12-27T07:55:51.589Z,4.82
2022-12-27T07:56:51.573Z,4.77
2022-12-27T07:57:51.557Z,4.84
2022-12-27T07:58:51.550Z,4.92
2022-12-27T07:59:51.540Z,5.16
2022-12-27T08:00:51.532Z,5.34
2022-12-27T08:01:51.627Z,5.76
2022-12-27T08:02:51.593Z,6.03
2022-12-27T08:03:51.507Z,6.25
2022-12-27T08:04:51.491Z,6.44
2022-12-27T08:05:51.475Z,6.52
2022-12-27T08:06:51.472Z,6.80
2022-12-27T08:07:51.481Z,6.98
2022-12-27T08:08:51.447Z,7.25
2022-12-27T08:09:51.440Z,7.26
2022-12-27T08:10:51.443Z,7.38
2022-12-27T08:11:51.417Z,7.50
2022-12-27T08:12:51.411Z,7.50
2022-12-27T08:13:51.393Z,7.39
2022-12-27T08:14:51.386Z,7.57
2022-12-27T08:15:51.369Z,7.10
2022-12-27T08:16:51.465Z,7.13
2022-12-27T08:17:51.351Z,7.10
2022-12-27T08:18:51.353Z,7.11
2022-12-27T08:19:51.338Z,6.99
2022-12-27T08:20:51.336Z,7.08
2022-12-27T08:21:51.331Z,7.35
2022-12-27T08:22:51.348Z,7.34
2022-12-27T08:23:51.356Z,7.46
2022-12-27T08:24:51.281Z,7.31
2022-12-27T08:25:51.289Z,7.49
2022-12-27T08:26:51.274Z,7.44
2022-12-27T08:27:51.253Z,7.50
2022-12-27T08:28:51.243Z,7.46
2022-12-27T08:29:51.230Z,7.49
2022-12-27T08:30:51.284Z,7.11
2022-12-27T08:31:51.212Z,7.07
2022-12-27T08:32:51.210Z,7.02
2022-12-27T08:33:56.573Z,7.17
2022-12-27T08:34:52.196Z,7.57
2022-12-27T08:35:53.270Z,7.62
2022-12-27T08:36:55.998Z,7.71
2022-12-27T08:37:51.145Z,7.49
2022-12-27T08:38:51.143Z,7.53
2022-12-27T08:39:51.163Z,7.21
2022-12-27T08:40:51.142Z,7.14
2022-12-27T08:41:51.107Z,7.29
2022-12-27T08:42:51.095Z,7.59
2022-12-27T08:43:51.095Z,7.71
2022-12-27T08:44:51.073Z,7.52
2022-12-27T08:45:51.121Z,7.42
2022-12-27T08:46:51.057Z,8.07
2022-12-27T08:47:51.085Z,8.32
2022-12-27T08:48:51.028Z,8.70
2022-12-27T08:49:51.034Z,8.70
2022-12-27T08:50:51.024Z,8.69
2022-12-27T08:51:51.057Z,8.84
2022-12-27T08:52:50.991Z,8.87
2022-12-27T08:53:50.989Z,9.06
2022-12-27T08:54:50.981Z,8.90
2022-12-27T08:55:50.984Z,8.84
2022-12-27T08:56:50.967Z,8.78
2022-12-27T08:57:50.948Z,8.62
2022-12-27T08:58:50.930Z,8.60
2022-12-27T08:59:50.929Z,8.55
2022-12-27T09:00:50.913Z,9.06
2022-12-27T09:01:51.033Z,9.57
2022-12-27T09:02:50.987Z,9.86
2022-12-27T09:03:50.885Z,9.66
2022-12-27T09:04:50.868Z,9.88
2022-12-27T09:05:50.857Z,10.45
2022-12-27T09:06:50.876Z,11.13
2022-12-27T09:07:50.847Z,11.88
2022-12-27T09:08:50.856Z,12.19
2022-12-27T09:09:50.815Z,12.45
2022-12-27T09:10:50.816Z,12.82
2022-12-27T09:11:50.825Z,12.91
2022-12-27T09:12:50.805Z,13.21
2022-12-27T09:13:50.786Z,12.88
2022-12-27T09:14:50.782Z,12.82
2022-12-27T09:15:50.819Z,12.46
2022-12-27T09:16:50.756Z,12.37
2022-12-27T09:17:50.745Z,11.99
2022-12-27T09:18:50.726Z,12.13
2022-12-27T09:19:50.719Z,12.64
2022-12-27T09:20:50.703Z,13.08
2022-12-27T09:21:50.719Z,13.31
2022-12-27T09:22:50.695Z,13.52
2022-12-27T09:23:50.706Z,13.46
2022-12-27T09:24:50.665Z,13.59
2022-12-27T09:25:50.651Z,13.67
2022-12-27T09:26:50.643Z,13.69
2022-12-27T09:27:50.667Z,14.33
2022-12-27T09:28:50.640Z,14.56
2022-12-27T09:29:50.713Z,14.61
2022-12-27T09:30:50.740Z,14.94
2022-12-27T09:31:50.592Z,14.96
2022-12-27T09:32:50.588Z,15.35
2022-12-27T09:33:50.585Z,15.55
2022-12-27T09:34:50.560Z,15.42
2022-12-27T09:35:50.558Z,15.31
2022-12-27T09:36:50.555Z,15.03
2022-12-27T09:37:50.537Z,14.83
2022-12-27T09:38:50.522Z,14.87
2022-12-27T09:39:50.523Z,14.56
2022-12-27T09:40:50.513Z,13.95
2022-12-27T09:43:06.243Z,14.26
2022-12-27T09:43:51.616Z,14.59
2022-12-27T09:44:50.465Z,14.95
2022-12-27T09:45:50.467Z,15.18
2022-12-27T09:46:50.478Z,15.11
2022-12-27T09:47:50.436Z,14.73
2022-12-27T09:48:50.422Z,14.41
2022-12-27T09:49:50.420Z,13.82
2022-12-27T09:50:50.421Z,14.00
2022-12-27T09:51:50.400Z,13.70
2022-12-27T09:52:50.392Z,14.04
2022-12-27T09:53:50.385Z,14.47
2022-12-27T09:54:50.368Z,14.92
2022-12-27T09:55:50.357Z,15.42
2022-12-27T09:57:19.552Z,15.69
2022-12-27T09:57:51.385Z,15.70
2022-12-27T09:58:50.323Z,15.97
2022-12-27T09:59:50.342Z,16.19
2022-12-27T10:00:50.314Z,15.50
2022-12-27T10:01:50.502Z,14.73
2022-12-27T10:02:50.333Z,14.95
2022-12-27T10:03:50.277Z,15.75
2022-12-27T10:05:19.303Z,16.42
2022-12-27T10:05:56.232Z,16.49
2022-12-27T10:06:50.287Z,17.08
2022-12-27T10:07:50.252Z,17.24
2022-12-27T10:08:50.235Z,17.11
2022-12-27T10:09:50.221Z,16.73
2022-12-27T10:10:50.221Z,16.63
2022-12-27T10:11:50.223Z,16.91
2022-12-27T10:12:50.187Z,17.22
2022-12-27T10:13:50.187Z,17.17
2022-12-27T10:14:50.185Z,16.93
2022-12-27T10:15:50.260Z,16.83
2022-12-27T10:16:50.159Z,15.79
2022-12-27T10:17:53.276Z,15.50
2022-12-27T10:18:50.134Z,15.32
2022-12-27T10:19:50.152Z,14.51
2022-12-27T10:20:50.118Z,14.55
2022-12-27T10:21:50.110Z,15.32
2022-12-27T10:22:50.097Z,14.98
2022-12-27T10:23:50.088Z,14.37
2022-12-27T10:24:50.084Z,14.36
2022-12-27T10:25:50.171Z,15.02
2022-12-27T10:26:50.064Z,15.26
2022-12-27T10:27:50.049Z,15.62
2022-12-27T10:28:53.143Z,16.09
2022-12-27T10:29:51.058Z,16.31
2022-12-27T10:30:50.161Z,17.27
2022-12-27T10:31:50.166Z,17.77
2022-12-27T10:32:50.006Z,17.44
2022-12-27T10:34:40.701Z,17.19
2022-12-27T10:34:49.983Z,17.24
2022-12-27T10:35:49.997Z,17.46
2022-12-27T10:36:49.964Z,18.17
2022-12-27T10:37:49.967Z,18.62
2022-12-27T10:38:49.943Z,18.25
2022-12-27T10:39:49.941Z,18.88
2022-12-27T10:40:49.928Z,19.08
2022-12-27T10:41:49.922Z,19.35
2022-12-27T10:42:49.911Z,19.23
2022-12-27T10:47:26.593Z,18.58
2022-12-27T10:47:28.015Z,19.41
2022-12-27T10:48:36.384Z,19.78
2022-12-27T10:49:29.017Z,19.84
2022-12-27T11:01:12.368Z,19.88
2022-12-27T11:01:13.977Z,19.08
2022-12-27T11:02:13.989Z,19.82
2022-12-27T11:03:13.884Z,19.92
2022-12-27T14:43:06.936Z,20.11
2022-12-27T14:43:08.351Z,20.61
2022-12-27T14:56:46.181Z,20.43
2022-12-27T14:56:47.595Z,21.13
2022-12-27T14:57:47.591Z,21.05
2022-12-27T14:58:47.750Z,20.86
2022-12-27T14:59:47.567Z,20.55
2022-12-27T15:00:47.556Z,20.10
2022-12-27T15:01:47.696Z,19.50
2022-12-27T15:02:47.816Z,19.38
2022-12-27T15:03:47.626Z,19.48
2022-12-27T15:04:47.524Z,19.54
2022-12-27T15:05:47.625Z,19.54
2022-12-27T15:06:47.505Z,19.54
2022-12-27T15:07:47.493Z,19.70
2022-12-27T15:08:47.485Z,19.55
2022-12-27T15:09:47.470Z,19.51
2022-12-27T15:10:47.463Z,19.14
2022-12-27T15:11:47.455Z,19.04
2022-12-27T15:12:47.443Z,18.44
2022-12-27T15:13:47.435Z,18.33
2022-12-27T15:14:47.452Z,18.09
2022-12-27T15:15:47.454Z,18.24
2022-12-27T15:16:47.417Z,18.17
2022-12-27T15:17:47.409Z,17.72
2022-12-27T15:18:47.390Z,17.72
2022-12-27T15:19:47.376Z,17.37
2022-12-27T15:20:47.363Z,17.19
2022-12-27T15:21:47.359Z,17.29
2022-12-27T15:22:47.346Z,17.04
2022-12-27T15:23:47.339Z,17.19
2022-12-27T15:24:47.349Z,17.14
2022-12-27T15:25:47.325Z,17.02
2022-12-27T15:26:47.306Z,16.79
2022-12-27T15:27:47.309Z,16.70
2022-12-27T15:28:47.438Z,16.34
2022-12-27T15:29:47.295Z,16.38
2022-12-27T15:30:47.409Z,16.37
2022-12-27T15:31:47.262Z,16.24
2022-12-27T15:32:52.843Z,16.15
2022-12-27T15:33:48.259Z,15.90
2022-12-27T15:34:47.244Z,15.75
2022-12-27T15:35:47.220Z,15.42
2022-12-27T15:36:47.208Z,15.23
2022-12-27T15:37:47.207Z,15.03
2022-12-27T15:38:52.873Z,14.95
2022-12-27T15:39:48.197Z,14.74
2022-12-27T15:40:47.168Z,14.47
2022-12-27T15:41:47.156Z,14.32
2022-12-27T15:42:48.898Z,14.14
2022-12-27T15:43:47.153Z,13.81
2022-12-27T15:44:47.127Z,13.54
2022-12-27T15:45:47.117Z,13.42
2022-12-27T15:46:47.174Z,13.01
2022-12-27T15:47:47.112Z,12.80
2022-12-27T15:48:51.652Z,12.57
2022-12-27T15:49:48.101Z,12.42
2022-12-27T15:50:47.065Z,12.14
2022-12-27T15:51:47.057Z,11.88
2022-12-27T15:52:47.051Z,11.83
2022-12-27T15:53:47.038Z,11.71
2022-12-27T15:54:53.349Z,11.54
2022-12-27T15:55:48.038Z,11.43
2022-12-27T15:56:47.014Z,11.38
2022-12-27T15:57:46.996Z,11.32
2022-12-27T15:58:46.986Z,11.30
2022-12-27T15:59:46.972Z,11.03
2022-12-27T16:00:46.962Z,10.89
2022-12-27T16:01:47.024Z,10.73
2022-12-27T16:02:47.207Z,10.27
2022-12-27T16:03:46.960Z,10.18
2022-12-27T16:04:46.923Z,9.79
2022-12-27T16:05:46.913Z,9.69
2022-12-27T16:06:46.903Z,9.41
2022-12-27T16:07:46.927Z,9.35
2022-12-27T16:08:46.880Z,9.45
2022-12-27T16:09:46.873Z,9.23
2022-12-27T16:10:46.863Z,9.36
2022-12-27T16:11:46.850Z,9.20
2022-12-27T16:12:46.839Z,8.88
2022-12-27T16:13:46.828Z,8.99
2022-12-27T16:14:46.822Z,8.82
2022-12-27T16:15:46.901Z,8.75
2022-12-27T16:16:46.798Z,8.73
2022-12-27T16:17:46.791Z,8.81
2022-12-27T16:18:46.803Z,8.54
2022-12-27T16:19:46.770Z,8.77
2022-12-27T16:20:46.760Z,8.51
2022-12-27T16:21:46.745Z,8.67
2022-12-27T16:22:46.754Z,8.60
2022-12-27T16:23:46.722Z,8.66
2022-12-27T16:24:46.737Z,8.60
2022-12-27T16:25:48.314Z,8.81
2022-12-27T16:26:46.705Z,8.67
2022-12-27T16:27:46.702Z,8.57
2022-12-27T16:28:46.687Z,8.55
2022-12-27T16:30:46.654Z,8.26
2022-12-27T16:33:46.626Z,8.23
2022-12-27T16:34:46.641Z,8.14
2022-12-27T16:35:46.605Z,8.23
2022-12-27T16:36:46.607Z,8.11
2022-12-27T16:37:46.582Z,8.11
2022-12-27T16:38:46.572Z,8.33
2022-12-27T16:39:46.581Z,8.33
2022-12-27T16:40:46.556Z,8.14
2022-12-27T16:41:46.545Z,8.08
2022-12-27T16:42:46.532Z,8.12
2022-12-27T16:43:46.538Z,8.01
2022-12-27T16:44:46.524Z,8.10
2022-12-27T16:45:46.501Z,8.19
2022-12-27T16:46:46.573Z,8.07
2022-12-27T16:47:46.482Z,8.05
2022-12-27T16:48:46.472Z,8.07
2022-12-27T16:49:46.461Z,8.04
2022-12-27T16:50:46.482Z,7.90
2022-12-27T16:51:46.440Z,7.77
2022-12-27T16:52:46.432Z,7.62
2022-12-27T16:53:46.425Z,7.64
2022-12-27T16:54:46.410Z,7.78
2022-12-27T16:55:46.402Z,7.78
2022-12-27T16:56:46.388Z,7.74
2022-12-27T16:57:46.385Z,7.52
2022-12-27T16:58:46.375Z,7.59
2022-12-27T16:59:46.361Z,7.62
2022-12-27T17:00:46.396Z,7.69
2022-12-27T17:01:46.491Z,7.54
2022-12-27T17:02:46.615Z,7.50
2022-12-27T17:03:46.336Z,7.42
2022-12-27T17:04:46.310Z,7.47
2022-12-27T17:06:13.509Z,7.47
2022-12-27T17:06:47.338Z,7.54
2022-12-27T17:07:46.282Z,7.38
2022-12-27T17:08:46.266Z,7.38
2022-12-27T17:09:46.254Z,7.21
2022-12-27T17:10:46.244Z,7.35
2022-12-27T17:11:46.234Z,7.34
2022-12-27T17:12:46.227Z,7.26
2022-12-27T17:13:46.213Z,7.28
2022-12-27T17:14:46.215Z,7.17
2022-12-27T17:15:49.458Z,7.23
2022-12-27T17:16:46.218Z,7.29
2022-12-27T17:17:46.174Z,7.08
2022-12-27T17:18:46.164Z,7.17
2022-12-27T17:19:46.182Z,7.11
2022-12-27T17:20:46.141Z,7.08
2022-12-27T17:21:46.138Z,7.11
2022-12-27T17:22:46.151Z,7.05
2022-12-27T17:23:46.117Z,7.25
2022-12-27T17:24:46.108Z,7.13
2022-12-27T17:25:46.091Z,7.14
2022-12-27T17:26:46.083Z,7.03
2022-12-27T17:27:46.075Z,7.00
2022-12-27T17:28:46.060Z,7.13
2022-12-27T17:29:46.063Z,7.08
2022-12-27T17:30:46.041Z,7.26
2022-12-27T17:31:46.060Z,7.14
2022-12-27T17:32:46.023Z,7.18
2022-12-27T17:33:46.025Z,7.07
2022-12-27T17:34:46.004Z,7.25
2022-12-27T17:35:45.994Z,7.18
2022-12-27T17:36:45.980Z,7.03
2022-12-27T17:37:45.969Z,7.23
2022-12-27T17:38:45.996Z,7.08
2022-12-27T17:39:45.955Z,6.91
2022-12-27T17:40:45.941Z,7.10
2022-12-27T17:41:45.930Z,7.03
2022-12-27T17:42:45.919Z,7.08
2022-12-27T17:43:45.911Z,7.00
2022-12-27T17:44:45.901Z,6.88
2022-12-27T17:45:45.909Z,6.69
2022-12-27T17:46:45.880Z,6.70
2022-12-27T17:47:45.866Z,6.80
2022-12-27T17:48:45.858Z,6.76
2022-12-27T17:49:45.845Z,6.58
2022-12-27T17:50:45.840Z,6.58
2022-12-27T17:51:45.830Z,6.58
2022-12-27T17:52:45.841Z,6.61
2022-12-27T17:53:45.807Z,6.72
2022-12-27T17:54:45.831Z,6.79
2022-12-27T17:55:45.796Z,6.80
2022-12-27T17:56:45.789Z,6.87
2022-12-27T17:57:45.766Z,6.72
2022-12-27T17:58:45.757Z,6.79
2022-12-27T17:59:45.746Z,6.64
2022-12-27T18:00:45.784Z,6.61
2022-12-27T18:01:45.897Z,6.65
2022-12-27T18:02:45.826Z,6.44
2022-12-27T18:03:45.729Z,6.48
2022-12-27T18:04:45.692Z,6.40
2022-12-27T18:05:45.685Z,6.37
2022-12-27T18:06:45.679Z,6.23
2022-12-27T18:07:45.663Z,6.34
2022-12-27T18:08:45.684Z,6.23
2022-12-27T18:09:45.656Z,6.33
2022-12-27T18:10:45.655Z,6.15
2022-12-27T18:11:45.626Z,6.10
2022-12-27T18:12:45.611Z,6.15
2022-12-27T18:13:45.602Z,6.22
2022-12-27T18:14:45.600Z,6.21
2022-12-27T18:15:45.589Z,6.10
2022-12-27T18:16:45.639Z,6.04
2022-12-27T18:17:45.566Z,6.07
2022-12-27T18:18:45.550Z,6.25
2022-12-27T18:19:45.539Z,6.18
2022-12-27T18:20:45.531Z,6.04
2022-12-27T18:21:45.526Z,6.04
2022-12-27T18:22:45.510Z,6.15
2022-12-27T18:23:45.512Z,6.05
2022-12-27T18:24:45.498Z,6.22
2022-12-27T18:25:45.494Z,6.05
2022-12-27T18:26:45.492Z,6.04
2022-12-27T18:27:45.460Z,6.07
2022-12-27T18:28:45.445Z,6.04
2022-12-27T18:29:45.439Z,6.01
2022-12-27T18:30:45.432Z,5.98
2022-12-27T18:31:45.460Z,6.08
2022-12-27T18:32:45.408Z,6.07
2022-12-27T18:33:45.412Z,5.89
2022-12-27T18:34:45.389Z,5.92
2022-12-27T18:35:45.378Z,5.83
2022-12-27T18:36:45.368Z,5.92
2022-12-27T18:37:45.359Z,6.04
2022-12-27T18:38:45.348Z,6.07
2022-12-27T18:39:45.334Z,6.08
2022-12-27T18:40:45.329Z,6.01
2022-12-27T18:41:45.326Z,6.00
2022-12-27T18:42:45.349Z,5.90
2022-12-27T18:43:45.318Z,6.00
2022-12-27T18:44:45.284Z,5.97
2022-12-27T18:45:45.335Z,6.00
2022-12-27T18:46:45.266Z,5.89
2022-12-27T18:47:45.272Z,5.95
2022-12-27T18:48:45.254Z,5.77
2022-12-27T18:49:45.231Z,5.89
2022-12-27T18:50:45.223Z,6.00
2022-12-27T18:51:45.218Z,5.85
2022-12-27T18:52:49.611Z,5.87
2022-12-27T18:53:46.214Z,5.69
2022-12-27T18:54:45.181Z,5.67
2022-12-27T18:55:45.171Z,5.43
2022-12-27T18:56:45.169Z,5.58
2022-12-27T18:57:45.157Z,5.50
2022-12-27T18:58:45.170Z,5.39
2022-12-27T18:59:45.138Z,5.45
2022-12-27T19:00:45.258Z,5.31
2022-12-27T19:01:45.255Z,5.25
2022-12-27T19:02:45.261Z,5.42
2022-12-27T19:03:45.096Z,5.25
2022-12-27T19:04:45.086Z,5.25
2022-12-27T19:05:45.072Z,5.31
2022-12-27T19:06:45.060Z,5.32
2022-12-27T19:07:45.059Z,5.23
2022-12-27T19:08:45.091Z,5.13
2022-12-27T19:09:45.034Z,5.13
2022-12-27T19:10:45.021Z,5.10
2022-12-27T19:11:45.013Z,5.24
2022-12-27T19:12:45.015Z,5.27
2022-12-27T19:13:44.992Z,5.23
2022-12-27T19:14:45.021Z,5.16
2022-12-27T19:15:45.028Z,5.02
2022-12-27T19:16:44.964Z,4.97
2022-12-27T19:17:44.953Z,5.18
2022-12-27T19:18:44.942Z,5.24
2022-12-27T19:19:44.933Z,5.48
2022-12-27T19:20:44.921Z,5.45
2022-12-27T19:21:44.913Z,5.53
2022-12-27T19:22:44.903Z,5.43
2022-12-27T19:23:44.891Z,5.46
2022-12-27T19:24:44.881Z,5.23
2022-12-27T19:25:44.869Z,5.24
2022-12-27T19:26:44.867Z,5.15
2022-12-27T19:27:44.850Z,5.41
2022-12-27T19:28:44.842Z,5.48
2022-12-27T19:29:44.831Z,5.41
2022-12-27T19:30:44.846Z,5.27
2022-12-27T19:31:44.912Z,5.27
2022-12-27T19:32:44.804Z,5.32
2022-12-27T19:33:44.798Z,5.27
2022-12-27T19:34:44.783Z,5.13
2022-12-27T19:35:44.777Z,5.31
2022-12-27T19:36:44.770Z,5.32
2022-12-27T19:37:44.748Z,5.45
2022-12-27T19:38:47.995Z,5.25
2022-12-27T19:39:44.731Z,5.38
2022-12-27T19:40:44.720Z,5.42
2022-12-27T19:41:44.709Z,5.59
2022-12-27T19:42:44.709Z,5.61
2022-12-27T19:43:44.690Z,5.53
2022-12-27T19:44:44.681Z,5.67
2022-12-27T19:45:44.720Z,5.64
2022-12-27T19:46:44.697Z,5.77
2022-12-27T19:47:44.661Z,5.61
2022-12-27T19:48:46.219Z,5.57
2022-12-27T19:49:45.659Z,5.64
2022-12-27T19:50:44.626Z,5.64
2022-12-27T19:51:44.607Z,5.49
2022-12-27T19:52:44.604Z,5.53
2022-12-27T19:53:44.593Z,5.46
2022-12-27T19:54:44.580Z,5.53
2022-12-27T19:55:44.569Z,5.31
2022-12-27T19:56:44.559Z,5.54
2022-12-27T19:57:44.572Z,5.23
2022-12-27T19:58:44.543Z,5.38
2022-12-27T19:59:44.533Z,5.05
2022-12-27T20:00:44.600Z,5.24
2022-12-27T20:01:44.672Z,5.13
2022-12-27T20:02:44.704Z,5.13
2022-12-27T20:03:44.526Z,5.20
2022-12-27T20:04:44.478Z,5.03
2022-12-27T20:06:13.919Z,5.13
2022-12-27T20:06:45.492Z,5.12
2022-12-27T20:07:44.449Z,4.91
2022-12-27T20:08:44.444Z,5.02
2022-12-27T20:09:44.439Z,4.95
2022-12-27T20:10:44.422Z,4.85
2022-12-27T20:11:44.407Z,4.95
2022-12-27T20:12:44.399Z,4.94
2022-12-27T20:13:44.390Z,4.76
2022-12-27T20:14:44.383Z,4.94
2022-12-27T20:15:44.370Z,4.85
2022-12-27T20:16:44.393Z,4.85
2022-12-27T20:17:45.102Z,4.85
2022-12-27T20:18:44.369Z,4.88
2022-12-27T20:19:44.332Z,4.94
2022-12-27T20:20:44.324Z,4.79
2022-12-27T20:21:44.317Z,4.89
2022-12-27T20:22:44.297Z,4.92
2022-12-27T20:23:44.288Z,4.74
2022-12-27T20:24:44.279Z,4.73
2022-12-27T20:25:44.275Z,4.59
2022-12-27T20:26:44.264Z,4.70
2022-12-27T20:27:44.248Z,4.61
2022-12-27T20:28:44.249Z,4.41
2022-12-27T20:29:44.231Z,4.71
2022-12-27T20:30:44.225Z,4.31
2022-12-27T20:31:45.416Z,4.20
2022-12-27T20:32:44.202Z,4.37
2022-12-27T20:33:44.192Z,4.28
2022-12-27T20:34:44.207Z,4.38
2022-12-27T20:35:44.180Z,4.31
2022-12-27T20:36:44.163Z,4.37
2022-12-27T20:37:44.228Z,4.45
2022-12-27T20:38:44.134Z,4.45
2022-12-27T20:39:44.130Z,4.53
2022-12-27T20:40:44.152Z,4.58
2022-12-27T20:41:44.107Z,4.64
2022-12-27T20:42:44.098Z,4.48
2022-12-27T20:43:44.091Z,4.48
2022-12-27T20:44:44.079Z,4.49
2022-12-27T20:45:44.116Z,4.49
2022-12-27T20:46:44.062Z,4.37
2022-12-27T20:47:44.053Z,4.51
2022-12-27T20:48:44.042Z,4.27
2022-12-27T20:49:44.028Z,4.38
2022-12-27T20:50:44.045Z,4.34
2022-12-27T20:51:44.011Z,4.34
2022-12-27T20:52:43.997Z,4.13
2022-12-27T20:53:43.985Z,4.16
2022-12-27T20:54:43.978Z,4.07
2022-12-27T20:55:43.965Z,4.01
2022-12-27T20:56:43.957Z,3.78
2022-12-27T20:57:43.947Z,3.87
2022-12-27T20:58:43.936Z,3.76
2022-12-27T20:59:43.932Z,4.03
2022-12-27T21:00:43.911Z,3.97
2022-12-27T21:01:43.976Z,3.81
2022-12-27T21:02:44.066Z,3.99
2022-12-27T21:03:43.969Z,3.94
2022-12-27T21:04:43.877Z,4.16
2022-12-27T21:05:43.867Z,3.93
2022-12-27T21:06:43.882Z,4.03
2022-12-27T21:07:43.844Z,4.10
2022-12-27T21:08:49.013Z,4.10
2022-12-27T21:09:44.867Z,3.94
2022-12-27T21:10:43.812Z,3.83
2022-12-27T21:11:43.801Z,3.91
2022-12-27T21:12:43.795Z,3.89
2022-12-27T21:13:43.809Z,3.89
2022-12-27T21:14:43.774Z,3.91
2022-12-27T21:15:43.760Z,4.10
2022-12-27T21:16:43.777Z,3.90
2022-12-27T21:17:43.743Z,3.99
2022-12-27T21:18:43.736Z,3.93
2022-12-27T21:19:43.722Z,3.85
2022-12-27T21:20:43.709Z,3.81
2022-12-27T21:21:43.703Z,3.93
2022-12-27T21:22:43.713Z,3.83
2022-12-27T21:23:43.687Z,3.81
2022-12-27T21:24:43.676Z,3.87
2022-12-27T21:25:43.662Z,3.75
2022-12-27T21:26:43.665Z,3.60
2022-12-27T21:27:43.645Z,3.91
2022-12-27T21:28:43.638Z,3.81
2022-12-27T21:29:43.621Z,3.67
2022-12-27T21:30:43.685Z,3.73
2022-12-27T21:31:43.602Z,3.78
2022-12-27T21:32:43.592Z,3.64
2022-12-27T21:33:43.612Z,3.75
2022-12-27T21:34:43.581Z,3.82
2022-12-27T21:35:43.570Z,3.54
2022-12-27T21:36:43.552Z,3.69
2022-12-27T21:37:43.537Z,3.79
2022-12-27T21:38:43.556Z,3.64
2022-12-27T21:39:43.537Z,3.65
2022-12-27T21:40:43.513Z,3.63
2022-12-27T21:41:43.499Z,3.71
2022-12-27T21:42:43.488Z,3.69
2022-12-27T21:43:43.492Z,3.57
2022-12-27T21:44:43.469Z,3.63
2022-12-27T21:45:43.463Z,3.47
2022-12-27T21:46:43.504Z,3.37
2022-12-27T21:47:43.440Z,3.54
2022-12-27T21:48:43.430Z,3.39
2022-12-27T21:49:43.419Z,3.43
2022-12-27T21:50:43.408Z,3.53
2022-12-27T21:51:43.404Z,3.60
2022-12-27T21:52:43.396Z,3.36
2022-12-27T21:53:43.396Z,3.36
2022-12-27T21:54:43.397Z,3.42
2022-12-27T21:55:43.366Z,3.32
2022-12-27T21:56:43.362Z,3.37
2022-12-27T21:57:43.342Z,3.58
2022-12-27T21:58:43.333Z,3.33
2022-12-27T21:59:43.329Z,3.25
2022-12-27T22:00:43.319Z,3.40
2022-12-27T22:01:50.054Z,3.28
2022-12-27T22:02:44.519Z,3.33
2022-12-27T22:03:43.434Z,3.27
2022-12-27T22:04:43.274Z,3.28
2022-12-27T22:05:43.258Z,3.10
2022-12-27T22:06:47.260Z,3.22
2022-12-27T22:07:43.237Z,3.43
2022-12-27T22:08:43.256Z,3.18
2022-12-27T22:09:43.219Z,3.15
2022-12-27T22:10:43.236Z,3.18
2022-12-27T22:11:43.211Z,3.19
2022-12-27T22:12:43.188Z,3.15
2022-12-27T22:13:43.182Z,3.25
2022-12-27T22:14:43.175Z,3.19
2022-12-27T22:15:43.198Z,3.18
2022-12-27T22:16:43.150Z,3.15
2022-12-27T22:17:43.141Z,3.24
2022-12-27T22:18:43.127Z,3.29
2022-12-27T22:19:43.118Z,3.33
2022-12-27T22:20:46.855Z,3.24
2022-12-27T22:21:43.124Z,3.15
2022-12-27T22:22:43.092Z,3.39
2022-12-27T22:23:43.079Z,3.32
2022-12-27T22:24:43.077Z,3.42
2022-12-27T22:25:43.072Z,3.21
2022-12-27T22:26:43.240Z,3.17
2022-12-27T22:27:43.043Z,3.21
2022-12-27T22:28:43.028Z,3.07
2022-12-27T22:29:43.025Z,3.40
2022-12-27T22:30:43.077Z,3.29
2022-12-27T22:31:43.026Z,3.28
2022-12-27T22:32:43.000Z,3.35
2022-12-27T22:33:42.979Z,3.27
2022-12-27T22:34:42.971Z,3.39
2022-12-27T22:35:42.961Z,3.29
2022-12-27T22:36:42.964Z,3.25
2022-12-27T22:37:42.938Z,3.07
2022-12-27T22:38:47.599Z,3.18
2022-12-27T22:39:43.945Z,3.22
2022-12-27T22:40:45.778Z,3.04
2022-12-27T22:41:42.901Z,3.14
2022-12-27T22:42:42.917Z,2.92
2022-12-27T22:43:42.879Z,3.24
2022-12-27T22:44:42.868Z,3.33
2022-12-27T22:45:44.594Z,3.28
2022-12-27T22:47:42.867Z,3.18
2022-12-27T22:48:42.836Z,3.27
2022-12-27T22:49:42.817Z,3.19
2022-12-27T22:50:42.811Z,3.32
2022-12-27T22:51:42.800Z,3.14
2022-12-27T22:52:42.790Z,3.17
2022-12-27T22:53:42.793Z,3.10
2022-12-27T22:55:05.252Z,3.12
2022-12-27T22:55:43.783Z,3.09
2022-12-27T22:56:42.795Z,3.09
2022-12-27T22:57:42.750Z,3.21